sensor_id;sensor_type;location;lat;lon;timestamp;P1;durP1;ratioP1;P2;durP2;ratioP2
42066;SDS011;27734;47.028;28.820;2023-04-06T00:01:47;2.97;;;2.37;;
42066;SDS011;27734;47.028;28.820;2023-04-06T00:04:22;3.60;;;2.25;;
42066;SDS011;27734;47.028;28.820;2023-04-06T00:06:57;5.47;;;2.57;;
42066;SDS011;27734;47.028;28.820;2023-04-06T00:09:34;4.20;;;2.60;;
42066;SDS011;27734;47.028;28.820;2023-04-06T00:12:09;4.67;;;3.10;;
42066;SDS011;27734;47.028;28.820;2023-04-06T00:14:43;4.40;;;2.97;;
42066;SDS011;27734;47.028;28.820;2023-04-06T00:17:19;4.93;;;2.63;;
42066;SDS011;27734;47.028;28.820;2023-04-06T00:19:54;3.97;;;2.80;;
42066;SDS011;27734;47.028;28.820;2023-04-06T00:22:28;4.60;;;2.57;;
42066;SDS011;27734;47.028;28.820;2023-04-06T00:25:02;6.22;;;2.90;;
42066;SDS011;27734;47.028;28.820;2023-04-06T00:27:35;4.50;;;2.80;;
42066;SDS011;27734;47.028;28.820;2023-04-06T00:30:09;4.03;;;2.70;;
42066;SDS011;27734;47.028;28.820;2023-04-06T00:32:42;4.40;;;2.30;;
42066;SDS011;27734;47.028;28.820;2023-04-06T00:35:14;3.30;;;2.60;;
42066;SDS011;27734;47.028;28.820;2023-04-06T00:37:47;4.15;;;2.85;;
42066;SDS011;27734;47.028;28.820;2023-04-06T00:40:19;3.37;;;2.60;;
42066;SDS011;27734;47.028;28.820;2023-04-06T00:42:52;5.10;;;3.07;;
42066;SDS011;27734;47.028;28.820;2023-04-06T00:45:24;4.97;;;3.03;;
42066;SDS011;27734;47.028;28.820;2023-04-06T00:47:57;6.37;;;3.33;;
42066;SDS011;27734;47.028;28.820;2023-04-06T00:50:30;4.95;;;2.75;;
42066;SDS011;27734;47.028;28.820;2023-04-06T00:53:03;4.77;;;2.93;;
42066;SDS011;27734;47.028;28.820;2023-04-06T00:55:35;4.63;;;3.00;;
42066;SDS011;27734;47.028;28.820;2023-04-06T00:58:10;5.10;;;2.62;;
42066;SDS011;27734;47.028;28.820;2023-04-06T01:00:49;5.30;;;3.23;;
42066;SDS011;27734;47.028;28.820;2023-04-06T01:03:23;4.37;;;2.80;;
42066;SDS011;27734;47.028;28.820;2023-04-06T01:05:56;4.93;;;2.97;;
42066;SDS011;27734;47.028;28.820;2023-04-06T01:08:33;3.40;;;2.50;;
42066;SDS011;27734;47.028;28.820;2023-04-06T01:11:23;6.17;;;3.30;;
42066;SDS011;27734;47.028;28.820;2023-04-06T01:13:56;4.83;;;2.50;;
42066;SDS011;27734;47.028;28.820;2023-04-06T01:16:40;5.97;;;2.57;;
42066;SDS011;27734;47.028;28.820;2023-04-06T01:19:18;3.50;;;2.47;;
42066;SDS011;27734;47.028;28.820;2023-04-06T01:21:54;3.53;;;2.37;;
42066;SDS011;27734;47.028;28.820;2023-04-06T01:24:33;4.00;;;2.40;;
42066;SDS011;27734;47.028;28.820;2023-04-06T01:27:24;4.47;;;2.90;;
42066;SDS011;27734;47.028;28.820;2023-04-06T01:30:03;3.53;;;2.67;;
42066;SDS011;27734;47.028;28.820;2023-04-06T01:33:15;5.27;;;2.93;;
42066;SDS011;27734;47.028;28.820;2023-04-06T01:36:02;4.80;;;2.80;;
42066;SDS011;27734;47.028;28.820;2023-04-06T01:38:35;3.60;;;2.67;;
42066;SDS011;27734;47.028;28.820;2023-04-06T01:41:08;3.47;;;2.30;;
42066;SDS011;27734;47.028;28.820;2023-04-06T01:43:49;3.80;;;2.67;;
42066;SDS011;27734;47.028;28.820;2023-04-06T01:46:26;3.87;;;2.50;;
42066;SDS011;27734;47.028;28.820;2023-04-06T01:48:59;4.93;;;2.63;;
42066;SDS011;27734;47.028;28.820;2023-04-06T01:51:42;3.33;;;2.53;;
42066;SDS011;27734;47.028;28.820;2023-04-06T01:54:15;6.23;;;2.70;;
42066;SDS011;27734;47.028;28.820;2023-04-06T01:57:12;3.73;;;2.43;;
42066;SDS011;27734;47.028;28.820;2023-04-06T01:59:51;3.30;;;2.30;;
42066;SDS011;27734;47.028;28.820;2023-04-06T02:02:32;3.33;;;2.40;;
42066;SDS011;27734;47.028;28.820;2023-04-06T02:05:08;4.07;;;2.30;;
42066;SDS011;27734;47.028;28.820;2023-04-06T02:07:40;5.03;;;2.70;;
42066;SDS011;27734;47.028;28.820;2023-04-06T02:10:14;3.00;;;2.13;;
42066;SDS011;27734;47.028;28.820;2023-04-06T02:12:46;4.90;;;2.90;;
42066;SDS011;27734;47.028;28.820;2023-04-06T02:15:23;3.87;;;2.57;;
42066;SDS011;27734;47.028;28.820;2023-04-06T02:17:56;3.43;;;2.30;;
42066;SDS011;27734;47.028;28.820;2023-04-06T02:20:29;5.85;;;2.60;;
42066;SDS011;27734;47.028;28.820;2023-04-06T02:23:02;2.23;;;2.00;;
42066;SDS011;27734;47.028;28.820;2023-04-06T02:25:34;3.00;;;2.37;;
42066;SDS011;27734;47.028;28.820;2023-04-06T02:28:07;4.90;;;2.27;;
42066;SDS011;27734;47.028;28.820;2023-04-06T02:30:39;3.77;;;2.30;;
42066;SDS011;27734;47.028;28.820;2023-04-06T02:33:11;2.10;;;1.90;;
42066;SDS011;27734;47.028;28.820;2023-04-06T02:35:47;3.13;;;2.27;;
42066;SDS011;27734;47.028;28.820;2023-04-06T02:38:19;3.17;;;2.27;;
42066;SDS011;27734;47.028;28.820;2023-04-06T02:40:51;2.50;;;2.00;;
42066;SDS011;27734;47.028;28.820;2023-04-06T02:43:26;3.13;;;2.40;;
42066;SDS011;27734;47.028;28.820;2023-04-06T02:46:08;2.80;;;2.30;;
42066;SDS011;27734;47.028;28.820;2023-04-06T02:48:41;3.27;;;2.40;;
42066;SDS011;27734;47.028;28.820;2023-04-06T02:51:13;2.97;;;2.33;;
42066;SDS011;27734;47.028;28.820;2023-04-06T02:53:47;2.30;;;2.10;;
42066;SDS011;27734;47.028;28.820;2023-04-06T02:56:20;3.20;;;2.00;;
42066;SDS011;27734;47.028;28.820;2023-04-06T02:58:53;2.00;;;1.80;;
42066;SDS011;27734;47.028;28.820;2023-04-06T03:01:27;2.87;;;2.00;;
42066;SDS011;27734;47.028;28.820;2023-04-06T03:04:02;3.20;;;2.13;;
42066;SDS011;27734;47.028;28.820;2023-04-06T03:06:34;2.83;;;2.10;;
42066;SDS011;27734;47.028;28.820;2023-04-06T03:09:13;2.87;;;1.90;;
42066;SDS011;27734;47.028;28.820;2023-04-06T03:11:46;2.30;;;1.90;;
42066;SDS011;27734;47.028;28.820;2023-04-06T03:14:19;2.57;;;2.00;;
42066;SDS011;27734;47.028;28.820;2023-04-06T03:16:52;2.35;;;1.90;;
42066;SDS011;27734;47.028;28.820;2023-04-06T03:19:24;2.90;;;1.97;;
42066;SDS011;27734;47.028;28.820;2023-04-06T03:21:58;3.27;;;2.07;;
42066;SDS011;27734;47.028;28.820;2023-04-06T03:24:30;2.10;;;1.80;;
42066;SDS011;27734;47.028;28.820;2023-04-06T03:27:03;2.43;;;1.83;;
42066;SDS011;27734;47.028;28.820;2023-04-06T03:29:36;4.12;;;2.45;;
42066;SDS011;27734;47.028;28.820;2023-04-06T03:32:10;2.62;;;1.92;;
42066;SDS011;27734;47.028;28.820;2023-04-06T03:34:44;1.60;;;1.50;;
42066;SDS011;27734;47.028;28.820;2023-04-06T03:37:16;2.30;;;1.90;;
42066;SDS011;27734;47.028;28.820;2023-04-06T03:39:52;2.33;;;1.90;;
42066;SDS011;27734;47.028;28.820;2023-04-06T03:42:25;2.80;;;2.10;;
42066;SDS011;27734;47.028;28.820;2023-04-06T03:45:04;2.50;;;1.77;;
42066;SDS011;27734;47.028;28.820;2023-04-06T03:47:38;3.27;;;2.00;;
42066;SDS011;27734;47.028;28.820;2023-04-06T03:50:11;3.20;;;2.20;;
42066;SDS011;27734;47.028;28.820;2023-04-06T03:52:43;4.43;;;2.10;;
42066;SDS011;27734;47.028;28.820;2023-04-06T03:55:16;3.20;;;2.20;;
42066;SDS011;27734;47.028;28.820;2023-04-06T03:57:48;2.37;;;2.00;;
42066;SDS011;27734;47.028;28.820;2023-04-06T04:00:21;2.80;;;2.03;;
42066;SDS011;27734;47.028;28.820;2023-04-06T04:02:53;2.73;;;1.87;;
42066;SDS011;27734;47.028;28.820;2023-04-06T04:05:25;2.30;;;2.10;;
42066;SDS011;27734;47.028;28.820;2023-04-06T04:07:58;4.40;;;2.10;;
42066;SDS011;27734;47.028;28.820;2023-04-06T04:10:30;2.87;;;2.17;;
42066;SDS011;27734;47.028;28.820;2023-04-06T04:13:02;3.10;;;2.30;;
42066;SDS011;27734;47.028;28.820;2023-04-06T04:15:35;3.23;;;2.30;;
42066;SDS011;27734;47.028;28.820;2023-04-06T04:18:07;2.67;;;2.10;;
42066;SDS011;27734;47.028;28.820;2023-04-06T04:20:41;2.87;;;2.37;;
42066;SDS011;27734;47.028;28.820;2023-04-06T04:23:14;3.70;;;2.50;;
42066;SDS011;27734;47.028;28.820;2023-04-06T04:25:47;3.90;;;2.20;;
42066;SDS011;27734;47.028;28.820;2023-04-06T04:28:20;4.25;;;2.52;;
42066;SDS011;27734;47.028;28.820;2023-04-06T04:30:56;3.73;;;2.30;;
42066;SDS011;27734;47.028;28.820;2023-04-06T04:33:30;3.00;;;2.37;;
42066;SDS011;27734;47.028;28.820;2023-04-06T04:36:05;4.03;;;2.42;;
42066;SDS011;27734;47.028;28.820;2023-04-06T04:38:42;4.13;;;2.50;;
42066;SDS011;27734;47.028;28.820;2023-04-06T04:41:15;4.87;;;2.70;;
42066;SDS011;27734;47.028;28.820;2023-04-06T04:43:48;3.90;;;2.47;;
42066;SDS011;27734;47.028;28.820;2023-04-06T04:46:24;3.57;;;2.40;;
42066;SDS011;27734;47.028;28.820;2023-04-06T04:48:57;3.57;;;2.40;;
42066;SDS011;27734;47.028;28.820;2023-04-06T04:51:30;3.83;;;2.43;;
42066;SDS011;27734;47.028;28.820;2023-04-06T04:54:12;5.20;;;2.70;;
42066;SDS011;27734;47.028;28.820;2023-04-06T04:56:45;3.03;;;2.53;;
42066;SDS011;27734;47.028;28.820;2023-04-06T04:59:25;4.20;;;2.40;;
42066;SDS011;27734;47.028;28.820;2023-04-06T05:02:03;4.30;;;2.60;;
42066;SDS011;27734;47.028;28.820;2023-04-06T05:04:43;5.47;;;2.57;;
42066;SDS011;27734;47.028;28.820;2023-04-06T05:07:21;5.83;;;2.93;;
42066;SDS011;27734;47.028;28.820;2023-04-06T05:09:54;4.25;;;2.72;;
42066;SDS011;27734;47.028;28.820;2023-04-06T05:12:29;4.70;;;2.87;;
42066;SDS011;27734;47.028;28.820;2023-04-06T05:15:09;4.83;;;2.87;;
42066;SDS011;27734;47.028;28.820;2023-04-06T05:17:44;3.97;;;2.63;;
42066;SDS011;27734;47.028;28.820;2023-04-06T05:20:18;4.90;;;2.80;;
42066;SDS011;27734;47.028;28.820;2023-04-06T05:22:52;5.15;;;2.70;;
42066;SDS011;27734;47.028;28.820;2023-04-06T05:25:25;5.90;;;3.40;;
42066;SDS011;27734;47.028;28.820;2023-04-06T05:28:00;6.03;;;2.83;;
42066;SDS011;27734;47.028;28.820;2023-04-06T05:30:36;6.67;;;3.47;;
42066;SDS011;27734;47.028;28.820;2023-04-06T05:33:11;4.03;;;2.63;;
42066;SDS011;27734;47.028;28.820;2023-04-06T05:36:10;4.07;;;2.83;;
42066;SDS011;27734;47.028;28.820;2023-04-06T05:38:47;5.00;;;2.90;;
42066;SDS011;27734;47.028;28.820;2023-04-06T05:41:34;4.77;;;2.80;;
42066;SDS011;27734;47.028;28.820;2023-04-06T05:44:06;3.63;;;2.80;;
42066;SDS011;27734;47.028;28.820;2023-04-06T05:46:44;5.93;;;3.17;;
42066;SDS011;27734;47.028;28.820;2023-04-06T05:49:26;5.40;;;2.80;;
42066;SDS011;27734;47.028;28.820;2023-04-06T05:51:59;6.10;;;3.10;;
42066;SDS011;27734;47.028;28.820;2023-04-06T05:54:32;5.67;;;3.02;;
42066;SDS011;27734;47.028;28.820;2023-04-06T05:57:08;4.17;;;2.80;;
42066;SDS011;27734;47.028;28.820;2023-04-06T05:59:42;4.90;;;3.00;;
42066;SDS011;27734;47.028;28.820;2023-04-06T06:02:16;4.87;;;3.20;;
42066;SDS011;27734;47.028;28.820;2023-04-06T06:04:53;8.07;;;3.33;;
42066;SDS011;27734;47.028;28.820;2023-04-06T06:07:27;7.43;;;3.23;;
42066;SDS011;27734;47.028;28.820;2023-04-06T06:10:03;6.80;;;3.37;;
42066;SDS011;27734;47.028;28.820;2023-04-06T06:12:38;5.87;;;3.17;;
42066;SDS011;27734;47.028;28.820;2023-04-06T06:15:13;6.73;;;2.93;;
42066;SDS011;27734;47.028;28.820;2023-04-06T06:17:49;4.17;;;2.80;;
42066;SDS011;27734;47.028;28.820;2023-04-06T06:20:22;4.80;;;3.20;;
42066;SDS011;27734;47.028;28.820;2023-04-06T06:23:02;5.40;;;2.83;;
42066;SDS011;27734;47.028;28.820;2023-04-06T06:25:38;6.20;;;3.47;;
42066;SDS011;27734;47.028;28.820;2023-04-06T06:28:14;7.97;;;3.93;;
42066;SDS011;27734;47.028;28.820;2023-04-06T06:30:47;5.47;;;2.90;;
42066;SDS011;27734;47.028;28.820;2023-04-06T06:33:22;7.40;;;3.20;;
42066;SDS011;27734;47.028;28.820;2023-04-06T06:36:12;4.95;;;3.20;;
42066;SDS011;27734;47.028;28.820;2023-04-06T06:38:45;4.67;;;2.93;;
42066;SDS011;27734;47.028;28.820;2023-04-06T06:41:21;7.00;;;3.07;;
42066;SDS011;27734;47.028;28.820;2023-04-06T06:44:00;7.27;;;3.60;;
42066;SDS011;27734;47.028;28.820;2023-04-06T06:46:35;6.25;;;3.30;;
42066;SDS011;27734;47.028;28.820;2023-04-06T06:49:09;7.67;;;3.60;;
42066;SDS011;27734;47.028;28.820;2023-04-06T06:51:43;6.13;;;3.50;;
42066;SDS011;27734;47.028;28.820;2023-04-06T06:54:16;7.47;;;3.83;;
42066;SDS011;27734;47.028;28.820;2023-04-06T06:56:49;6.47;;;3.83;;
42066;SDS011;27734;47.028;28.820;2023-04-06T06:59:22;5.37;;;3.30;;
42066;SDS011;27734;47.028;28.820;2023-04-06T07:01:54;8.50;;;4.30;;
42066;SDS011;27734;47.028;28.820;2023-04-06T07:04:27;8.20;;;3.93;;
42066;SDS011;27734;47.028;28.820;2023-04-06T07:06:59;7.73;;;3.70;;
42066;SDS011;27734;47.028;28.820;2023-04-06T07:09:32;9.50;;;3.70;;
42066;SDS011;27734;47.028;28.820;2023-04-06T07:12:05;9.63;;;3.87;;
42066;SDS011;27734;47.028;28.820;2023-04-06T07:14:47;8.17;;;3.43;;
42066;SDS011;27734;47.028;28.820;2023-04-06T07:17:25;10.77;;;3.50;;
42066;SDS011;27734;47.028;28.820;2023-04-06T07:20:06;8.30;;;4.43;;
42066;SDS011;27734;47.028;28.820;2023-04-06T07:22:43;7.53;;;4.10;;
42066;SDS011;27734;47.028;28.820;2023-04-06T07:25:17;8.03;;;3.52;;
42066;SDS011;27734;47.028;28.820;2023-04-06T07:27:50;8.90;;;4.17;;
42066;SDS011;27734;47.028;28.820;2023-04-06T07:30:23;10.37;;;4.03;;
42066;SDS011;27734;47.028;28.820;2023-04-06T07:32:58;6.50;;;3.70;;
42066;SDS011;27734;47.028;28.820;2023-04-06T07:35:34;7.03;;;3.90;;
42066;SDS011;27734;47.028;28.820;2023-04-06T07:38:07;10.93;;;4.73;;
42066;SDS011;27734;47.028;28.820;2023-04-06T07:40:42;11.70;;;4.60;;
42066;SDS011;27734;47.028;28.820;2023-04-06T07:43:15;7.87;;;4.13;;
42066;SDS011;27734;47.028;28.820;2023-04-06T07:45:47;12.00;;;4.80;;
42066;SDS011;27734;47.028;28.820;2023-04-06T07:48:23;11.23;;;4.27;;
42066;SDS011;27734;47.028;28.820;2023-04-06T07:51:01;10.50;;;4.25;;
42066;SDS011;27734;47.028;28.820;2023-04-06T07:53:38;6.10;;;3.50;;
42066;SDS011;27734;47.028;28.820;2023-04-06T07:56:10;6.43;;;3.47;;
42066;SDS011;27734;47.028;28.820;2023-04-06T07:58:44;5.03;;;3.42;;
42066;SDS011;27734;47.028;28.820;2023-04-06T08:01:18;6.80;;;3.75;;
42066;SDS011;27734;47.028;28.820;2023-04-06T08:03:50;6.90;;;4.07;;
42066;SDS011;27734;47.028;28.820;2023-04-06T08:06:24;7.43;;;3.93;;
42066;SDS011;27734;47.028;28.820;2023-04-06T08:08:57;8.60;;;3.83;;
42066;SDS011;27734;47.028;28.820;2023-04-06T08:11:29;7.30;;;3.40;;
42066;SDS011;27734;47.028;28.820;2023-04-06T08:14:07;7.30;;;3.70;;
42066;SDS011;27734;47.028;28.820;2023-04-06T08:16:42;7.20;;;3.80;;
42066;SDS011;27734;47.028;28.820;2023-04-06T08:19:17;5.60;;;3.30;;
42066;SDS011;27734;47.028;28.820;2023-04-06T08:21:49;8.30;;;4.05;;
42066;SDS011;27734;47.028;28.820;2023-04-06T08:24:22;11.27;;;4.57;;
42066;SDS011;27734;47.028;28.820;2023-04-06T08:27:05;16.42;;;5.78;;
42066;SDS011;27734;47.028;28.820;2023-04-06T08:29:40;12.50;;;5.87;;
42066;SDS011;27734;47.028;28.820;2023-04-06T08:32:16;11.03;;;5.67;;
42066;SDS011;27734;47.028;28.820;2023-04-06T08:34:52;13.67;;;7.13;;
42066;SDS011;27734;47.028;28.820;2023-04-06T08:37:29;11.30;;;5.75;;
42066;SDS011;27734;47.028;28.820;2023-04-06T08:40:09;10.33;;;5.23;;
42066;SDS011;27734;47.028;28.820;2023-04-06T08:42:44;6.67;;;4.20;;
42066;SDS011;27734;47.028;28.820;2023-04-06T08:45:21;9.80;;;4.90;;
42066;SDS011;27734;47.028;28.820;2023-04-06T08:47:58;9.63;;;4.63;;
42066;SDS011;27734;47.028;28.820;2023-04-06T08:50:33;9.20;;;4.90;;
42066;SDS011;27734;47.028;28.820;2023-04-06T08:53:06;11.70;;;5.30;;
42066;SDS011;27734;47.028;28.820;2023-04-06T08:55:41;8.13;;;4.47;;
42066;SDS011;27734;47.028;28.820;2023-04-06T08:58:15;10.90;;;5.00;;
42066;SDS011;27734;47.028;28.820;2023-04-06T09:00:48;8.03;;;5.03;;
42066;SDS011;27734;47.028;28.820;2023-04-06T09:03:21;10.53;;;5.42;;
42066;SDS011;27734;47.028;28.820;2023-04-06T09:05:56;12.73;;;5.70;;
42066;SDS011;27734;47.028;28.820;2023-04-06T09:08:30;8.43;;;4.35;;
42066;SDS011;27734;47.028;28.820;2023-04-06T09:11:04;9.67;;;4.70;;
42066;SDS011;27734;47.028;28.820;2023-04-06T09:13:56;11.43;;;4.60;;
42066;SDS011;27734;47.028;28.820;2023-04-06T09:16:38;8.63;;;4.43;;
42066;SDS011;27734;47.028;28.820;2023-04-06T09:19:12;8.97;;;5.27;;
42066;SDS011;27734;47.028;28.820;2023-04-06T09:21:44;9.40;;;5.33;;
42066;SDS011;27734;47.028;28.820;2023-04-06T09:24:21;13.20;;;6.13;;
42066;SDS011;27734;47.028;28.820;2023-04-06T09:26:57;12.50;;;6.47;;
42066;SDS011;27734;47.028;28.820;2023-04-06T09:29:33;11.33;;;6.07;;
42066;SDS011;27734;47.028;28.820;2023-04-06T09:32:06;8.87;;;5.30;;
42066;SDS011;27734;47.028;28.820;2023-04-06T09:34:42;10.67;;;5.30;;
42066;SDS011;27734;47.028;28.820;2023-04-06T09:37:27;10.27;;;5.20;;
42066;SDS011;27734;47.028;28.820;2023-04-06T09:40:04;10.43;;;5.80;;
42066;SDS011;27734;47.028;28.820;2023-04-06T09:42:44;10.80;;;5.33;;
42066;SDS011;27734;47.028;28.820;2023-04-06T09:45:21;10.13;;;5.90;;
42066;SDS011;27734;47.028;28.820;2023-04-06T09:47:53;11.00;;;6.30;;
42066;SDS011;27734;47.028;28.820;2023-04-06T09:50:30;12.35;;;6.70;;
42066;SDS011;27734;47.028;28.820;2023-04-06T09:53:05;14.03;;;6.60;;
42066;SDS011;27734;47.028;28.820;2023-04-06T09:55:42;12.00;;;6.70;;
42066;SDS011;27734;47.028;28.820;2023-04-06T09:58:17;11.67;;;6.47;;
42066;SDS011;27734;47.028;28.820;2023-04-06T10:01:07;13.00;;;6.60;;
42066;SDS011;27734;47.028;28.820;2023-04-06T10:03:49;12.50;;;6.80;;
42066;SDS011;27734;47.028;28.820;2023-04-06T10:06:31;11.77;;;6.20;;
42066;SDS011;27734;47.028;28.820;2023-04-06T10:09:08;11.70;;;6.45;;
42066;SDS011;27734;47.028;28.820;2023-04-06T10:11:44;10.47;;;5.63;;
42066;SDS011;27734;47.028;28.820;2023-04-06T10:14:19;12.50;;;6.20;;
42066;SDS011;27734;47.028;28.820;2023-04-06T10:16:52;11.15;;;6.25;;
42066;SDS011;27734;47.028;28.820;2023-04-06T10:19:29;12.67;;;6.90;;
42066;SDS011;27734;47.028;28.820;2023-04-06T10:22:14;10.90;;;6.17;;
42066;SDS011;27734;47.028;28.820;2023-04-06T10:24:56;12.70;;;6.17;;
42066;SDS011;27734;47.028;28.820;2023-04-06T10:27:29;9.83;;;5.70;;
42066;SDS011;27734;47.028;28.820;2023-04-06T10:30:08;10.07;;;5.33;;
42066;SDS011;27734;47.028;28.820;2023-04-06T10:32:43;10.03;;;5.80;;
42066;SDS011;27734;47.028;28.820;2023-04-06T10:35:15;11.07;;;5.90;;
42066;SDS011;27734;47.028;28.820;2023-04-06T10:37:49;17.40;;;7.30;;
42066;SDS011;27734;47.028;28.820;2023-04-06T10:40:23;9.87;;;5.90;;
42066;SDS011;27734;47.028;28.820;2023-04-06T10:43:08;11.13;;;6.00;;
42066;SDS011;27734;47.028;28.820;2023-04-06T10:45:52;15.93;;;7.53;;
42066;SDS011;27734;47.028;28.820;2023-04-06T10:48:35;13.87;;;7.67;;
42066;SDS011;27734;47.028;28.820;2023-04-06T10:51:13;16.97;;;7.57;;
42066;SDS011;27734;47.028;28.820;2023-04-06T10:53:49;14.57;;;7.97;;
42066;SDS011;27734;47.028;28.820;2023-04-06T10:56:31;13.67;;;7.73;;
42066;SDS011;27734;47.028;28.820;2023-04-06T10:59:12;12.73;;;6.78;;
42066;SDS011;27734;47.028;28.820;2023-04-06T11:01:55;11.63;;;6.97;;
42066;SDS011;27734;47.028;28.820;2023-04-06T11:04:28;18.83;;;10.43;;
42066;SDS011;27734;47.028;28.820;2023-04-06T11:07:04;14.93;;;8.27;;
42066;SDS011;27734;47.028;28.820;2023-04-06T11:09:40;16.97;;;9.13;;
42066;SDS011;27734;47.028;28.820;2023-04-06T11:12:25;21.57;;;9.50;;
42066;SDS011;27734;47.028;28.820;2023-04-06T11:15:05;19.37;;;10.60;;
42066;SDS011;27734;47.028;28.820;2023-04-06T11:17:41;16.43;;;9.23;;
42066;SDS011;27734;47.028;28.820;2023-04-06T11:20:27;15.90;;;8.60;;
42066;SDS011;27734;47.028;28.820;2023-04-06T11:23:08;14.70;;;8.17;;
42066;SDS011;27734;47.028;28.820;2023-04-06T11:25:51;16.23;;;9.17;;
42066;SDS011;27734;47.028;28.820;2023-04-06T11:28:26;15.03;;;8.30;;
42066;SDS011;27734;47.028;28.820;2023-04-06T11:31:06;12.93;;;7.70;;
42066;SDS011;27734;47.028;28.820;2023-04-06T11:33:39;13.70;;;7.67;;
42066;SDS011;27734;47.028;28.820;2023-04-06T11:36:13;13.48;;;8.30;;
42066;SDS011;27734;47.028;28.820;2023-04-06T11:38:52;13.65;;;7.97;;
42066;SDS011;27734;47.028;28.820;2023-04-06T11:41:29;14.30;;;8.27;;
42066;SDS011;27734;47.028;28.820;2023-04-06T11:44:05;18.00;;;9.83;;
42066;SDS011;27734;47.028;28.820;2023-04-06T11:46:38;15.97;;;9.80;;
42066;SDS011;27734;47.028;28.820;2023-04-06T11:49:15;15.33;;;9.27;;
42066;SDS011;27734;47.028;28.820;2023-04-06T11:51:48;15.27;;;9.10;;
42066;SDS011;27734;47.028;28.820;2023-04-06T11:54:30;13.67;;;8.87;;
42066;SDS011;27734;47.028;28.820;2023-04-06T11:57:07;16.10;;;9.07;;
42066;SDS011;27734;47.028;28.820;2023-04-06T11:59:45;16.43;;;10.13;;
42066;SDS011;27734;47.028;28.820;2023-04-06T12:02:17;18.13;;;11.37;;
42066;SDS011;27734;47.028;28.820;2023-04-06T12:04:55;18.30;;;10.35;;
42066;SDS011;27734;47.028;28.820;2023-04-06T12:07:29;18.63;;;11.50;;
42066;SDS011;27734;47.028;28.820;2023-04-06T12:10:05;18.40;;;11.20;;
42066;SDS011;27734;47.028;28.820;2023-04-06T12:12:40;19.80;;;11.83;;
42066;SDS011;27734;47.028;28.820;2023-04-06T12:15:12;18.73;;;11.87;;
42066;SDS011;27734;47.028;28.820;2023-04-06T12:17:47;19.50;;;12.03;;
42066;SDS011;27734;47.028;28.820;2023-04-06T12:20:20;20.20;;;12.67;;
42066;SDS011;27734;47.028;28.820;2023-04-06T12:22:52;17.60;;;11.47;;
42066;SDS011;27734;47.028;28.820;2023-04-06T12:25:27;19.63;;;11.80;;
42066;SDS011;27734;47.028;28.820;2023-04-06T12:28:00;20.77;;;13.33;;
42066;SDS011;27734;47.028;28.820;2023-04-06T12:30:32;21.40;;;12.40;;
42066;SDS011;27734;47.028;28.820;2023-04-06T12:33:12;22.50;;;12.97;;
42066;SDS011;27734;47.028;28.820;2023-04-06T12:35:44;20.13;;;12.50;;
42066;SDS011;27734;47.028;28.820;2023-04-06T12:38:19;21.45;;;12.55;;
42066;SDS011;27734;47.028;28.820;2023-04-06T12:40:57;21.60;;;12.57;;
42066;SDS011;27734;47.028;28.820;2023-04-06T12:43:33;20.60;;;12.73;;
42066;SDS011;27734;47.028;28.820;2023-04-06T12:46:05;19.40;;;12.17;;
42066;SDS011;27734;47.028;28.820;2023-04-06T12:48:39;24.00;;;12.97;;
42066;SDS011;27734;47.028;28.820;2023-04-06T12:51:11;20.53;;;12.60;;
42066;SDS011;27734;47.028;28.820;2023-04-06T12:53:47;26.00;;;16.50;;
42066;SDS011;27734;47.028;28.820;2023-04-06T12:56:22;22.20;;;14.23;;
42066;SDS011;27734;47.028;28.820;2023-04-06T12:59:09;22.75;;;13.70;;
42066;SDS011;27734;47.028;28.820;2023-04-06T13:01:42;21.10;;;13.20;;
42066;SDS011;27734;47.028;28.820;2023-04-06T13:04:15;20.60;;;13.27;;
42066;SDS011;27734;47.028;28.820;2023-04-06T13:06:48;21.07;;;13.13;;
42066;SDS011;27734;47.028;28.820;2023-04-06T13:09:41;20.80;;;12.33;;
42066;SDS011;27734;47.028;28.820;2023-04-06T13:12:19;21.30;;;13.37;;
42066;SDS011;27734;47.028;28.820;2023-04-06T13:14:57;22.10;;;13.20;;
42066;SDS011;27734;47.028;28.820;2023-04-06T13:17:31;21.23;;;13.50;;
42066;SDS011;27734;47.028;28.820;2023-04-06T13:20:10;25.23;;;14.03;;
42066;SDS011;27734;47.028;28.820;2023-04-06T13:22:47;19.13;;;11.27;;
42066;SDS011;27734;47.028;28.820;2023-04-06T13:25:28;21.10;;;13.03;;
42066;SDS011;27734;47.028;28.820;2023-04-06T13:28:03;23.63;;;13.67;;
42066;SDS011;27734;47.028;28.820;2023-04-06T13:30:35;22.77;;;13.23;;
42066;SDS011;27734;47.028;28.820;2023-04-06T13:33:12;22.10;;;14.10;;
42066;SDS011;27734;47.028;28.820;2023-04-06T13:35:51;20.73;;;12.27;;
42066;SDS011;27734;47.028;28.820;2023-04-06T13:38:26;23.50;;;14.33;;
42066;SDS011;27734;47.028;28.820;2023-04-06T13:41:03;22.77;;;13.30;;
42066;SDS011;27734;47.028;28.820;2023-04-06T13:43:36;23.77;;;14.40;;
42066;SDS011;27734;47.028;28.820;2023-04-06T13:46:09;23.90;;;14.03;;
42066;SDS011;27734;47.028;28.820;2023-04-06T13:48:44;23.03;;;14.17;;
42066;SDS011;27734;47.028;28.820;2023-04-06T13:51:26;22.80;;;14.23;;
42066;SDS011;27734;47.028;28.820;2023-04-06T13:53:59;24.27;;;14.83;;
42066;SDS011;27734;47.028;28.820;2023-04-06T13:56:32;25.07;;;14.20;;
42066;SDS011;27734;47.028;28.820;2023-04-06T13:59:05;20.03;;;12.57;;
42066;SDS011;27734;47.028;28.820;2023-04-06T14:01:38;22.93;;;13.73;;
42066;SDS011;27734;47.028;28.820;2023-04-06T14:04:23;23.80;;;14.73;;
42066;SDS011;27734;47.028;28.820;2023-04-06T14:07:02;23.30;;;14.47;;
42066;SDS011;27734;47.028;28.820;2023-04-06T14:09:39;21.43;;;13.70;;
42066;SDS011;27734;47.028;28.820;2023-04-06T14:12:14;21.33;;;14.00;;
42066;SDS011;27734;47.028;28.820;2023-04-06T14:14:46;21.27;;;12.73;;
42066;SDS011;27734;47.028;28.820;2023-04-06T14:17:19;22.90;;;13.97;;
42066;SDS011;27734;47.028;28.820;2023-04-06T14:19:52;21.90;;;13.37;;
42066;SDS011;27734;47.028;28.820;2023-04-06T14:22:32;22.20;;;13.70;;
42066;SDS011;27734;47.028;28.820;2023-04-06T14:25:09;21.77;;;13.75;;
42066;SDS011;27734;47.028;28.820;2023-04-06T14:27:42;23.03;;;13.83;;
42066;SDS011;27734;47.028;28.820;2023-04-06T14:30:15;24.55;;;15.55;;
42066;SDS011;27734;47.028;28.820;2023-04-06T14:32:50;24.20;;;15.08;;
42066;SDS011;27734;47.028;28.820;2023-04-06T14:35:23;24.20;;;15.23;;
42066;SDS011;27734;47.028;28.820;2023-04-06T14:37:57;23.93;;;15.07;;
42066;SDS011;27734;47.028;28.820;2023-04-06T14:40:33;22.23;;;14.03;;
42066;SDS011;27734;47.028;28.820;2023-04-06T14:43:07;21.87;;;13.73;;
42066;SDS011;27734;47.028;28.820;2023-04-06T14:45:39;22.37;;;14.10;;
42066;SDS011;27734;47.028;28.820;2023-04-06T14:48:12;21.37;;;12.43;;
42066;SDS011;27734;47.028;28.820;2023-04-06T14:50:52;21.00;;;13.47;;
42066;SDS011;27734;47.028;28.820;2023-04-06T14:53:26;22.63;;;13.97;;
42066;SDS011;27734;47.028;28.820;2023-04-06T14:55:58;21.50;;;13.90;;
42066;SDS011;27734;47.028;28.820;2023-04-06T14:58:30;22.63;;;13.67;;
42066;SDS011;27734;47.028;28.820;2023-04-06T15:01:03;20.50;;;12.83;;
42066;SDS011;27734;47.028;28.820;2023-04-06T15:06:11;23.90;;;14.00;;
42066;SDS011;27734;47.028;28.820;2023-04-06T15:08:45;24.77;;;15.33;;
42066;SDS011;27734;47.028;28.820;2023-04-06T15:11:17;22.73;;;14.33;;
42066;SDS011;27734;47.028;28.820;2023-04-06T15:13:49;22.30;;;13.73;;
42066;SDS011;27734;47.028;28.820;2023-04-06T15:16:22;21.27;;;13.90;;
42066;SDS011;27734;47.028;28.820;2023-04-06T15:18:54;22.70;;;13.37;;